sensor_id;sensor_type;location;lat;lon;timestamp;P1;durP1;ratioP1;P2;durP2;ratioP2
59756;SDS011;45631;51.962;5.974;2023-06-22T00:01:23;8.98;;;4.75;;
59756;SDS011;45631;51.962;5.974;2023-06-22T00:03:51;7.40;;;4.15;;
59756;SDS011;45631;51.962;5.974;2023-06-22T00:06:19;8.45;;;4.60;;
59756;SDS011;45631;51.962;5.974;2023-06-22T00:08:48;7.95;;;4.20;;
59756;SDS011;45631;51.962;5.974;2023-06-22T00:11:16;5.95;;;3.63;;
59756;SDS011;45631;51.962;5.974;2023-06-22T00:13:48;6.95;;;3.70;;
59756;SDS011;45631;51.962;5.974;2023-06-22T00:16:17;5.63;;;3.45;;
59756;SDS011;45631;51.962;5.974;2023-06-22T00:18:45;6.88;;;3.42;;
59756;SDS011;45631;51.962;5.974;2023-06-22T00:21:15;7.10;;;3.83;;
59756;SDS011;45631;51.962;5.974;2023-06-22T00:23:43;7.07;;;4.00;;
59756;SDS011;45631;51.962;5.974;2023-06-22T00:26:11;7.30;;;4.00;;
59756;SDS011;45631;51.962;5.974;2023-06-22T00:28:40;8.40;;;4.10;;
59756;SDS011;45631;51.962;5.974;2023-06-22T00:31:09;7.20;;;3.90;;
59756;SDS011;45631;51.962;5.974;2023-06-22T00:33:37;8.52;;;4.35;;
59756;SDS011;45631;51.962;5.974;2023-06-22T00:36:08;7.22;;;3.92;;
59756;SDS011;45631;51.962;5.974;2023-06-22T00:38:39;8.13;;;4.15;;
59756;SDS011;45631;51.962;5.974;2023-06-22T00:41:07;10.48;;;4.85;;
59756;SDS011;45631;51.962;5.974;2023-06-22T00:43:36;8.18;;;4.25;;
59756;SDS011;45631;51.962;5.974;2023-06-22T00:46:04;8.68;;;4.57;;
59756;SDS011;45631;51.962;5.974;2023-06-22T00:48:33;8.65;;;4.50;;
59756;SDS011;45631;51.962;5.974;2023-06-22T00:51:05;9.48;;;4.22;;
59756;SDS011;45631;51.962;5.974;2023-06-22T00:53:34;9.15;;;4.53;;
59756;SDS011;45631;51.962;5.974;2023-06-22T00:56:03;9.82;;;5.32;;
59756;SDS011;45631;51.962;5.974;2023-06-22T01:02:58;8.40;;;4.72;;
59756;SDS011;45631;51.962;5.974;2023-06-22T01:05:28;7.90;;;4.70;;
59756;SDS011;45631;51.962;5.974;2023-06-22T01:08:00;11.13;;;5.78;;
59756;SDS011;45631;51.962;5.974;2023-06-22T01:10:35;7.78;;;4.90;;
59756;SDS011;45631;51.962;5.974;2023-06-22T01:13:11;8.75;;;4.72;;
59756;SDS011;45631;51.962;5.974;2023-06-22T01:15:46;9.45;;;5.13;;
59756;SDS011;45631;51.962;5.974;2023-06-22T01:18:18;8.90;;;5.50;;
59756;SDS011;45631;51.962;5.974;2023-06-22T01:20:50;9.98;;;5.55;;
59756;SDS011;45631;51.962;5.974;2023-06-22T01:23:21;10.35;;;5.70;;
59756;SDS011;45631;51.962;5.974;2023-06-22T01:25:57;10.75;;;5.80;;
59756;SDS011;45631;51.962;5.974;2023-06-22T01:28:43;9.00;;;5.32;;
59756;SDS011;45631;51.962;5.974;2023-06-22T01:31:15;9.35;;;5.10;;
59756;SDS011;45631;51.962;5.974;2023-06-22T01:33:46;8.48;;;4.82;;
59756;SDS011;45631;51.962;5.974;2023-06-22T01:36:19;9.23;;;5.07;;
59756;SDS011;45631;51.962;5.974;2023-06-22T01:38:48;9.45;;;5.30;;
59756;SDS011;45631;51.962;5.974;2023-06-22T01:41:17;8.85;;;4.75;;
59756;SDS011;45631;51.962;5.974;2023-06-22T01:43:49;10.00;;;4.70;;
59756;SDS011;45631;51.962;5.974;2023-06-22T01:46:17;8.38;;;4.85;;
59756;SDS011;45631;51.962;5.974;2023-06-22T01:48:46;7.70;;;5.05;;
59756;SDS011;45631;51.962;5.974;2023-06-22T01:51:16;9.07;;;4.82;;
59756;SDS011;45631;51.962;5.974;2023-06-22T01:53:44;9.35;;;5.13;;
59756;SDS011;45631;51.962;5.974;2023-06-22T01:56:15;7.93;;;4.78;;
59756;SDS011;45631;51.962;5.974;2023-06-22T01:58:47;9.05;;;4.90;;
59756;SDS011;45631;51.962;5.974;2023-06-22T02:01:20;9.48;;;4.80;;
59756;SDS011;45631;51.962;5.974;2023-06-22T02:03:53;8.48;;;4.78;;
59756;SDS011;45631;51.962;5.974;2023-06-22T02:06:31;8.00;;;5.13;;
59756;SDS011;45631;51.962;5.974;2023-06-22T02:09:06;10.07;;;5.07;;
59756;SDS011;45631;51.962;5.974;2023-06-22T02:11:36;8.10;;;4.68;;
59756;SDS011;45631;51.962;5.974;2023-06-22T02:14:09;8.75;;;5.28;;
59756;SDS011;45631;51.962;5.974;2023-06-22T02:16:38;9.20;;;5.32;;
59756;SDS011;45631;51.962;5.974;2023-06-22T02:19:06;10.20;;;5.18;;
59756;SDS011;45631;51.962;5.974;2023-06-22T02:21:34;9.60;;;4.85;;
59756;SDS011;45631;51.962;5.974;2023-06-22T02:24:03;8.73;;;5.00;;
59756;SDS011;45631;51.962;5.974;2023-06-22T02:26:31;8.60;;;5.07;;
59756;SDS011;45631;51.962;5.974;2023-06-22T02:29:03;8.93;;;5.33;;
59756;SDS011;45631;51.962;5.974;2023-06-22T02:31:33;8.82;;;5.38;;
59756;SDS011;45631;51.962;5.974;2023-06-22T02:34:01;8.82;;;5.15;;
59756;SDS011;45631;51.962;5.974;2023-06-22T02:36:29;10.13;;;5.85;;
59756;SDS011;45631;51.962;5.974;2023-06-22T02:38:58;9.82;;;5.55;;
59756;SDS011;45631;51.962;5.974;2023-06-22T02:41:28;9.63;;;5.53;;
59756;SDS011;45631;51.962;5.974;2023-06-22T02:43:56;10.98;;;5.43;;
59756;SDS011;45631;51.962;5.974;2023-06-22T02:46:24;9.82;;;5.32;;
59756;SDS011;45631;51.962;5.974;2023-06-22T02:48:54;9.07;;;5.85;;
59756;SDS011;45631;51.962;5.974;2023-06-22T02:51:22;8.77;;;5.40;;
59756;SDS011;45631;51.962;5.974;2023-06-22T02:53:53;12.77;;;6.18;;
59756;SDS011;45631;51.962;5.974;2023-06-22T02:56:24;9.52;;;6.03;;
59756;SDS011;45631;51.962;5.974;2023-06-22T02:58:52;11.15;;;6.43;;
59756;SDS011;45631;51.962;5.974;2023-06-22T03:01:23;8.77;;;6.05;;
59756;SDS011;45631;51.962;5.974;2023-06-22T03:03:51;10.73;;;6.60;;
59756;SDS011;45631;51.962;5.974;2023-06-22T03:06:22;9.98;;;6.65;;
59756;SDS011;45631;51.962;5.974;2023-06-22T03:11:25;10.20;;;6.50;;
59756;SDS011;45631;51.962;5.974;2023-06-22T03:13:53;10.55;;;6.50;;
59756;SDS011;45631;51.962;5.974;2023-06-22T03:16:21;12.40;;;6.82;;
59756;SDS011;45631;51.962;5.974;2023-06-22T03:18:49;11.38;;;7.50;;
59756;SDS011;45631;51.962;5.974;2023-06-22T03:21:19;11.10;;;7.43;;
59756;SDS011;45631;51.962;5.974;2023-06-22T03:23:47;15.65;;;8.90;;
59756;SDS011;45631;51.962;5.974;2023-06-22T03:26:16;11.20;;;8.50;;
59756;SDS011;45631;51.962;5.974;2023-06-22T03:28:45;13.05;;;8.98;;
59756;SDS011;45631;51.962;5.974;2023-06-22T03:31:13;14.93;;;8.73;;
59756;SDS011;45631;51.962;5.974;2023-06-22T03:33:41;16.98;;;9.80;;
59756;SDS011;45631;51.962;5.974;2023-06-22T03:36:09;14.52;;;10.48;;
59756;SDS011;45631;51.962;5.974;2023-06-22T03:38:39;16.10;;;10.73;;
59756;SDS011;45631;51.962;5.974;2023-06-22T03:41:08;14.75;;;10.38;;
59756;SDS011;45631;51.962;5.974;2023-06-22T03:43:36;16.10;;;11.38;;
59756;SDS011;45631;51.962;5.974;2023-06-22T03:46:04;14.40;;;10.93;;
59756;SDS011;45631;51.962;5.974;2023-06-22T03:48:33;16.63;;;11.90;;
59756;SDS011;45631;51.962;5.974;2023-06-22T03:51:04;17.00;;;12.35;;
59756;SDS011;45631;51.962;5.974;2023-06-22T03:53:32;16.00;;;12.68;;
59756;SDS011;45631;51.962;5.974;2023-06-22T03:56:01;16.83;;;12.57;;
59756;SDS011;45631;51.962;5.974;2023-06-22T03:58:30;16.70;;;12.35;;
59756;SDS011;45631;51.962;5.974;2023-06-22T04:00:59;15.00;;;12.32;;
59756;SDS011;45631;51.962;5.974;2023-06-22T04:03:29;16.70;;;12.93;;
59756;SDS011;45631;51.962;5.974;2023-06-22T04:05:58;18.40;;;14.55;;
59756;SDS011;45631;51.962;5.974;2023-06-22T04:08:26;19.60;;;14.40;;
59756;SDS011;45631;51.962;5.974;2023-06-22T04:10:54;17.55;;;14.45;;
59756;SDS011;45631;51.962;5.974;2023-06-22T04:13:23;21.70;;;15.55;;
59756;SDS011;45631;51.962;5.974;2023-06-22T04:15:52;17.55;;;15.05;;
59756;SDS011;45631;51.962;5.974;2023-06-22T04:18:20;20.85;;;16.25;;
59756;SDS011;45631;51.962;5.974;2023-06-22T04:20:51;21.38;;;17.13;;
59756;SDS011;45631;51.962;5.974;2023-06-22T04:23:19;23.02;;;18.35;;
59756;SDS011;45631;51.962;5.974;2023-06-22T04:25:47;24.30;;;18.10;;
59756;SDS011;45631;51.962;5.974;2023-06-22T04:28:15;24.08;;;18.63;;
59756;SDS011;45631;51.962;5.974;2023-06-22T04:30:45;26.15;;;19.05;;
59756;SDS011;45631;51.962;5.974;2023-06-22T04:33:14;23.65;;;18.20;;
59756;SDS011;45631;51.962;5.974;2023-06-22T04:35:44;23.83;;;19.35;;
59756;SDS011;45631;51.962;5.974;2023-06-22T04:38:13;23.40;;;17.60;;
59756;SDS011;45631;51.962;5.974;2023-06-22T04:40:41;21.08;;;18.70;;
59756;SDS011;45631;51.962;5.974;2023-06-22T04:43:09;23.40;;;18.50;;
59756;SDS011;45631;51.962;5.974;2023-06-22T04:45:40;23.60;;;19.23;;
59756;SDS011;45631;51.962;5.974;2023-06-22T04:48:10;24.40;;;19.48;;
59756;SDS011;45631;51.962;5.974;2023-06-22T04:50:43;24.88;;;19.45;;
59756;SDS011;45631;51.962;5.974;2023-06-22T04:53:12;23.77;;;20.08;;
59756;SDS011;45631;51.962;5.974;2023-06-22T04:55:42;26.88;;;21.13;;
59756;SDS011;45631;51.962;5.974;2023-06-22T04:58:13;24.27;;;21.40;;
59756;SDS011;45631;51.962;5.974;2023-06-22T05:00:41;26.90;;;20.83;;
59756;SDS011;45631;51.962;5.974;2023-06-22T05:03:12;24.27;;;20.40;;
59756;SDS011;45631;51.962;5.974;2023-06-22T05:05:46;24.23;;;20.88;;
59756;SDS011;45631;51.962;5.974;2023-06-22T05:08:14;25.48;;;21.85;;
59756;SDS011;45631;51.962;5.974;2023-06-22T05:10:42;26.27;;;22.30;;
59756;SDS011;45631;51.962;5.974;2023-06-22T05:13:30;25.35;;;21.85;;
59756;SDS011;45631;51.962;5.974;2023-06-22T05:15:58;24.88;;;21.88;;
59756;SDS011;45631;51.962;5.974;2023-06-22T05:18:30;25.55;;;21.00;;
59756;SDS011;45631;51.962;5.974;2023-06-22T05:20:59;26.20;;;21.15;;
59756;SDS011;45631;51.962;5.974;2023-06-22T05:23:30;25.58;;;21.60;;
59756;SDS011;45631;51.962;5.974;2023-06-22T05:25:58;25.08;;;20.65;;
59756;SDS011;45631;51.962;5.974;2023-06-22T05:28:26;24.13;;;19.90;;
59756;SDS011;45631;51.962;5.974;2023-06-22T05:30:54;23.48;;;19.92;;
59756;SDS011;45631;51.962;5.974;2023-06-22T05:33:23;22.95;;;19.92;;
59756;SDS011;45631;51.962;5.974;2023-06-22T05:35:52;24.23;;;20.95;;
59756;SDS011;45631;51.962;5.974;2023-06-22T05:38:20;23.05;;;19.92;;
59756;SDS011;45631;51.962;5.974;2023-06-22T05:40:48;22.40;;;19.17;;
59756;SDS011;45631;51.962;5.974;2023-06-22T05:43:20;22.67;;;18.85;;
59756;SDS011;45631;51.962;5.974;2023-06-22T05:45:48;26.02;;;19.20;;
59756;SDS011;45631;51.962;5.974;2023-06-22T05:48:16;22.50;;;18.83;;
59756;SDS011;45631;51.962;5.974;2023-06-22T05:50:44;23.27;;;17.65;;
59756;SDS011;45631;51.962;5.974;2023-06-22T05:53:14;22.10;;;18.48;;
59756;SDS011;45631;51.962;5.974;2023-06-22T05:55:42;22.05;;;17.27;;
59756;SDS011;45631;51.962;5.974;2023-06-22T05:58:13;20.15;;;17.77;;
59756;SDS011;45631;51.962;5.974;2023-06-22T06:00:42;25.05;;;19.52;;
59756;SDS011;45631;51.962;5.974;2023-06-22T06:03:10;21.10;;;17.42;;
59756;SDS011;45631;51.962;5.974;2023-06-22T06:05:41;21.58;;;18.27;;
59756;SDS011;45631;51.962;5.974;2023-06-22T06:08:09;22.10;;;18.27;;
59756;SDS011;45631;51.962;5.974;2023-06-22T06:10:40;20.73;;;18.52;;
59756;SDS011;45631;51.962;5.974;2023-06-22T06:13:08;21.13;;;17.75;;
59756;SDS011;45631;51.962;5.974;2023-06-22T06:15:36;23.38;;;18.42;;
59756;SDS011;45631;51.962;5.974;2023-06-22T06:18:05;23.35;;;18.90;;
59756;SDS011;45631;51.962;5.974;2023-06-22T06:20:33;21.08;;;17.88;;
59756;SDS011;45631;51.962;5.974;2023-06-22T06:23:02;22.40;;;18.00;;
59756;SDS011;45631;51.962;5.974;2023-06-22T06:25:30;21.48;;;18.73;;
59756;SDS011;45631;51.962;5.974;2023-06-22T06:27:59;22.27;;;18.60;;
59756;SDS011;45631;51.962;5.974;2023-06-22T06:30:28;22.65;;;18.23;;
59756;SDS011;45631;51.962;5.974;2023-06-22T06:32:56;19.88;;;16.25;;
59756;SDS011;45631;51.962;5.974;2023-06-22T06:35:24;20.13;;;16.90;;
59756;SDS011;45631;51.962;5.974;2023-06-22T06:37:53;22.65;;;18.77;;
59756;SDS011;45631;51.962;5.974;2023-06-22T06:40:21;21.73;;;18.05;;
59756;SDS011;45631;51.962;5.974;2023-06-22T06:42:49;20.38;;;17.73;;
59756;SDS011;45631;51.962;5.974;2023-06-22T06:45:19;20.80;;;16.65;;
59756;SDS011;45631;51.962;5.974;2023-06-22T06:47:49;20.55;;;17.52;;
59756;SDS011;45631;51.962;5.974;2023-06-22T06:50:18;20.80;;;17.75;;
59756;SDS011;45631;51.962;5.974;2023-06-22T06:52:47;19.67;;;17.48;;
59756;SDS011;45631;51.962;5.974;2023-06-22T06:55:16;24.00;;;18.15;;
59756;SDS011;45631;51.962;5.974;2023-06-22T06:57:45;19.80;;;17.33;;
59756;SDS011;45631;51.962;5.974;2023-06-22T07:00:15;19.98;;;16.60;;
59756;SDS011;45631;51.962;5.974;2023-06-22T07:02:45;19.63;;;17.10;;
59756;SDS011;45631;51.962;5.974;2023-06-22T07:05:15;20.40;;;16.08;;
59756;SDS011;45631;51.962;5.974;2023-06-22T07:07:43;20.40;;;16.90;;
59756;SDS011;45631;51.962;5.974;2023-06-22T07:10:11;19.27;;;15.82;;
59756;SDS011;45631;51.962;5.974;2023-06-22T07:12:39;19.50;;;16.40;;
59756;SDS011;45631;51.962;5.974;2023-06-22T07:15:08;20.10;;;16.77;;
59756;SDS011;45631;51.962;5.974;2023-06-22T07:17:38;18.92;;;16.10;;
59756;SDS011;45631;51.962;5.974;2023-06-22T07:20:09;21.70;;;18.00;;
59756;SDS011;45631;51.962;5.974;2023-06-22T07:22:39;19.73;;;17.08;;
59756;SDS011;45631;51.962;5.974;2023-06-22T07:25:09;18.92;;;15.88;;
59756;SDS011;45631;51.962;5.974;2023-06-22T07:30:12;19.27;;;16.25;;
59756;SDS011;45631;51.962;5.974;2023-06-22T07:32:40;19.80;;;16.17;;
59756;SDS011;45631;51.962;5.974;2023-06-22T07:35:10;20.38;;;16.15;;
59756;SDS011;45631;51.962;5.974;2023-06-22T07:37:38;19.08;;;15.40;;
59756;SDS011;45631;51.962;5.974;2023-06-22T07:40:09;19.30;;;14.30;;
59756;SDS011;45631;51.962;5.974;2023-06-22T07:42:38;18.50;;;14.10;;
59756;SDS011;45631;51.962;5.974;2023-06-22T07:45:07;17.67;;;15.05;;
59756;SDS011;45631;51.962;5.974;2023-06-22T07:47:35;18.77;;;14.90;;
59756;SDS011;45631;51.962;5.974;2023-06-22T07:50:04;17.23;;;14.80;;
59756;SDS011;45631;51.962;5.974;2023-06-22T07:52:34;18.58;;;13.25;;
59756;SDS011;45631;51.962;5.974;2023-06-22T07:55:03;15.57;;;12.82;;
59756;SDS011;45631;51.962;5.974;2023-06-22T07:57:31;15.02;;;13.02;;
59756;SDS011;45631;51.962;5.974;2023-06-22T08:00:01;17.15;;;13.00;;
59756;SDS011;45631;51.962;5.974;2023-06-22T08:02:40;16.85;;;12.80;;
59756;SDS011;45631;51.962;5.974;2023-06-22T08:05:09;17.00;;;12.98;;
59756;SDS011;45631;51.962;5.974;2023-06-22T08:07:42;14.77;;;12.23;;
59756;SDS011;45631;51.962;5.974;2023-06-22T08:10:13;16.00;;;13.13;;
59756;SDS011;45631;51.962;5.974;2023-06-22T08:12:45;17.98;;;13.48;;
59756;SDS011;45631;51.962;5.974;2023-06-22T08:15:13;15.35;;;12.30;;
59756;SDS011;45631;51.962;5.974;2023-06-22T08:17:41;15.75;;;11.73;;
59756;SDS011;45631;51.962;5.974;2023-06-22T08:20:12;15.38;;;12.32;;
59756;SDS011;45631;51.962;5.974;2023-06-22T08:22:42;17.73;;;13.40;;
59756;SDS011;45631;51.962;5.974;2023-06-22T08:25:11;15.10;;;13.00;;
59756;SDS011;45631;51.962;5.974;2023-06-22T08:27:40;18.65;;;12.35;;
59756;SDS011;45631;51.962;5.974;2023-06-22T08:30:09;14.35;;;12.63;;
59756;SDS011;45631;51.962;5.974;2023-06-22T08:32:38;15.60;;;11.77;;
59756;SDS011;45631;51.962;5.974;2023-06-22T08:35:06;14.65;;;11.82;;
59756;SDS011;45631;51.962;5.974;2023-06-22T08:37:36;14.98;;;11.75;;
59756;SDS011;45631;51.962;5.974;2023-06-22T08:40:08;14.43;;;10.65;;
59756;SDS011;45631;51.962;5.974;2023-06-22T08:42:39;11.98;;;9.68;;
59756;SDS011;45631;51.962;5.974;2023-06-22T08:45:09;15.15;;;10.85;;
59756;SDS011;45631;51.962;5.974;2023-06-22T08:47:38;13.98;;;10.50;;
59756;SDS011;45631;51.962;5.974;2023-06-22T08:50:08;13.75;;;9.40;;
59756;SDS011;45631;51.962;5.974;2023-06-22T08:52:37;14.27;;;10.43;;
59756;SDS011;45631;51.962;5.974;2023-06-22T08:55:09;13.57;;;10.35;;
59756;SDS011;45631;51.962;5.974;2023-06-22T08:57:38;13.40;;;9.90;;
59756;SDS011;45631;51.962;5.974;2023-06-22T09:00:07;13.07;;;10.27;;
59756;SDS011;45631;51.962;5.974;2023-06-22T09:02:46;11.88;;;9.55;;
59756;SDS011;45631;51.962;5.974;2023-06-22T09:05:18;15.03;;;10.30;;
59756;SDS011;45631;51.962;5.974;2023-06-22T09:07:48;12.65;;;9.70;;
59756;SDS011;45631;51.962;5.974;2023-06-22T09:10:17;11.93;;;9.27;;
59756;SDS011;45631;51.962;5.974;2023-06-22T09:12:46;11.52;;;9.10;;
59756;SDS011;45631;51.962;5.974;2023-06-22T09:15:14;11.75;;;8.93;;
59756;SDS011;45631;51.962;5.974;2023-06-22T09:17:52;11.98;;;8.50;;
59756;SDS011;45631;51.962;5.974;2023-06-22T09:20:22;11.18;;;8.38;;
59756;SDS011;45631;51.962;5.974;2023-06-22T09:22:50;11.73;;;8.60;;
59756;SDS011;45631;51.962;5.974;2023-06-22T09:25:20;11.80;;;8.20;;
59756;SDS011;45631;51.962;5.974;2023-06-22T09:27:48;10.90;;;8.82;;
59756;SDS011;45631;51.962;5.974;2023-06-22T09:30:16;13.45;;;8.90;;
59756;SDS011;45631;51.962;5.974;2023-06-22T09:32:44;12.55;;;9.48;;
59756;SDS011;45631;51.962;5.974;2023-06-22T09:35:12;12.43;;;9.95;;
59756;SDS011;45631;51.962;5.974;2023-06-22T09:37:43;11.18;;;8.55;;
59756;SDS011;45631;51.962;5.974;2023-06-22T09:40:11;11.40;;;7.78;;
59756;SDS011;45631;51.962;5.974;2023-06-22T09:42:44;12.75;;;8.35;;
59756;SDS011;45631;51.962;5.974;2023-06-22T09:45:12;10.70;;;7.68;;
59756;SDS011;45631;51.962;5.974;2023-06-22T09:47:41;10.63;;;7.85;;
59756;SDS011;45631;51.962;5.974;2023-06-22T09:50:09;11.20;;;7.85;;
59756;SDS011;45631;51.962;5.974;2023-06-22T09:52:38;10.85;;;8.02;;
59756;SDS011;45631;51.962;5.974;2023-06-22T09:55:09;10.80;;;7.40;;
59756;SDS011;45631;51.962;5.974;2023-06-22T09:57:39;12.13;;;7.75;;
59756;SDS011;45631;51.962;5.974;2023-06-22T10:00:10;9.85;;;7.47;;
59756;SDS011;45631;51.962;5.974;2023-06-22T10:02:40;10.70;;;7.10;;
59756;SDS011;45631;51.962;5.974;2023-06-22T10:05:09;10.52;;;7.13;;
59756;SDS011;45631;51.962;5.974;2023-06-22T10:07:38;12.00;;;7.80;;
59756;SDS011;45631;51.962;5.974;2023-06-22T10:10:09;9.48;;;7.20;;
59756;SDS011;45631;51.962;5.974;2023-06-22T10:12:41;8.77;;;6.88;;
59756;SDS011;45631;51.962;5.974;2023-06-22T10:15:11;10.67;;;7.60;;
59756;SDS011;45631;51.962;5.974;2023-06-22T10:17:40;10.20;;;7.65;;
59756;SDS011;45631;51.962;5.974;2023-06-22T10:20:08;10.32;;;6.90;;
59756;SDS011;45631;51.962;5.974;2023-06-22T10:22:39;10.50;;;7.05;;
59756;SDS011;45631;51.962;5.974;2023-06-22T10:25:08;10.40;;;7.13;;
59756;SDS011;45631;51.962;5.974;2023-06-22T10:27:37;10.70;;;6.45;;
59756;SDS011;45631;51.962;5.974;2023-06-22T10:30:08;10.18;;;6.45;;
59756;SDS011;45631;51.962;5.974;2023-06-22T10:32:41;9.52;;;6.85;;
59756;SDS011;45631;51.962;5.974;2023-06-22T10:35:10;8.82;;;6.05;;
59756;SDS011;45631;51.962;5.974;2023-06-22T10:37:40;9.60;;;6.22;;
59756;SDS011;45631;51.962;5.974;2023-06-22T10:40:10;9.38;;;6.30;;
59756;SDS011;45631;51.962;5.974;2023-06-22T10:42:39;10.35;;;5.88;;
59756;SDS011;45631;51.962;5.974;2023-06-22T10:45:08;9.27;;;6.60;;
59756;SDS011;45631;51.962;5.974;2023-06-22T10:47:36;10.07;;;6.55;;
59756;SDS011;45631;51.962;5.974;2023-06-22T10:50:07;11.35;;;6.50;;
59756;SDS011;45631;51.962;5.974;2023-06-22T10:52:35;10.77;;;6.68;;
59756;SDS011;45631;51.962;5.974;2023-06-22T10:55:08;10.48;;;6.20;;
59756;SDS011;45631;51.962;5.974;2023-06-22T10:57:37;9.35;;;6.53;;
59756;SDS011;45631;51.962;5.974;2023-06-22T11:00:06;11.38;;;7.00;;
59756;SDS011;45631;51.962;5.974;2023-06-22T11:02:37;12.32;;;6.75;;
59756;SDS011;45631;51.962;5.974;2023-06-22T11:05:10;10.07;;;7.03;;
59756;SDS011;45631;51.962;5.974;2023-06-22T11:07:41;10.15;;;7.32;;
59756;SDS011;45631;51.962;5.974;2023-06-22T11:10:15;10.93;;;7.65;;
59756;SDS011;45631;51.962;5.974;2023-06-22T11:12:43;10.45;;;6.93;;
59756;SDS011;45631;51.962;5.974;2023-06-22T11:15:12;10.48;;;7.30;;
59756;SDS011;45631;51.962;5.974;2023-06-22T11:17:40;10.70;;;7.50;;
59756;SDS011;45631;51.962;5.974;2023-06-22T11:20:10;11.77;;;7.03;;
59756;SDS011;45631;51.962;5.974;2023-06-22T11:22:39;10.27;;;7.28;;
59756;SDS011;45631;51.962;5.974;2023-06-22T11:25:08;12.07;;;7.82;;
59756;SDS011;45631;51.962;5.974;2023-06-22T11:27:38;10.45;;;7.70;;
59756;SDS011;45631;51.962;5.974;2023-06-22T11:30:07;11.27;;;7.55;;
59756;SDS011;45631;51.962;5.974;2023-06-22T11:32:37;10.85;;;7.45;;
59756;SDS011;45631;51.962;5.974;2023-06-22T11:35:05;14.18;;;8.48;;
59756;SDS011;45631;51.962;5.974;2023-06-22T11:37:35;11.38;;;8.00;;
59756;SDS011;45631;51.962;5.974;2023-06-22T11:40:04;11.18;;;8.20;;
59756;SDS011;45631;51.962;5.974;2023-06-22T11:42:35;13.15;;;8.25;;
59756;SDS011;45631;51.962;5.974;2023-06-22T11:45:06;11.88;;;8.65;;
59756;SDS011;45631;51.962;5.974;2023-06-22T11:47:35;10.40;;;8.52;;
59756;SDS011;45631;51.962;5.974;2023-06-22T11:50:04;10.32;;;8.25;;
59756;SDS011;45631;51.962;5.974;2023-06-22T11:52:33;12.05;;;8.40;;
59756;SDS011;45631;51.962;5.974;2023-06-22T11:55:05;10.73;;;8.00;;
59756;SDS011;45631;51.962;5.974;2023-06-22T11:57:35;14.75;;;8.30;;
59756;SDS011;45631;51.962;5.974;2023-06-22T12:00:07;12.32;;;8.07;;
59756;SDS011;45631;51.962;5.974;2023-06-22T12:02:44;12.18;;;8.63;;
59756;SDS011;45631;51.962;5.974;2023-06-22T12:05:13;12.70;;;8.63;;
59756;SDS011;45631;51.962;5.974;2023-06-22T12:07:41;11.15;;;8.45;;
59756;SDS011;45631;51.962;5.974;2023-06-22T12:10:13;10.82;;;8.70;;
59756;SDS011;45631;51.962;5.974;2023-06-22T12:12:41;12.05;;;9.65;;
59756;SDS011;45631;51.962;5.974;2023-06-22T12:15:10;13.40;;;9.13;;
59756;SDS011;45631;51.962;5.974;2023-06-22T12:17:38;12.05;;;9.60;;
59756;SDS011;45631;51.962;5.974;2023-06-22T12:20:07;13.15;;;9.63;;
59756;SDS011;45631;51.962;5.974;2023-06-22T12:22:37;16.48;;;10.57;;
59756;SDS011;45631;51.962;5.974;2023-06-22T12:25:05;15.13;;;10.80;;
59756;SDS011;45631;51.962;5.974;2023-06-22T12:27:36;13.23;;;10.85;;
59756;SDS011;45631;51.962;5.974;2023-06-22T12:30:05;13.18;;;10.05;;
59756;SDS011;45631;51.962;5.974;2023-06-22T12:32:33;13.43;;;11.07;;
59756;SDS011;45631;51.962;5.974;2023-06-22T12:35:01;12.48;;;10.40;;
59756;SDS011;45631;51.962;5.974;2023-06-22T12:37:30;13.73;;;11.68;;
59756;SDS011;45631;51.962;5.974;2023-06-22T12:40:00;14.75;;;11.93;;
59756;SDS011;45631;51.962;5.974;2023-06-22T12:42:30;16.75;;;12.40;;
59756;SDS011;45631;51.962;5.974;2023-06-22T12:44:59;17.58;;;12.85;;
59756;SDS011;45631;51.962;5.974;2023-06-22T12:47:27;16.20;;;11.93;;
59756;SDS011;45631;51.962;5.974;2023-06-22T12:49:55;18.85;;;12.35;;
59756;SDS011;45631;51.962;5.974;2023-06-22T12:52:24;15.23;;;12.65;;
59756;SDS011;45631;51.962;5.974;2023-06-22T12:54:52;15.82;;;12.93;;
59756;SDS011;45631;51.962;5.974;2023-06-22T12:57:21;17.60;;;12.55;;
59756;SDS011;45631;51.962;5.974;2023-06-22T12:59:50;16.50;;;13.25;;
59756;SDS011;45631;51.962;5.974;2023-06-22T13:02:19;17.83;;;14.23;;
59756;SDS011;45631;51.962;5.974;2023-06-22T13:04:47;17.48;;;13.98;;
59756;SDS011;45631;51.962;5.974;2023-06-22T13:07:15;15.65;;;12.75;;
59756;SDS011;45631;51.962;5.974;2023-06-22T13:09:49;14.45;;;12.93;;
59756;SDS011;45631;51.962;5.974;2023-06-22T13:12:19;16.70;;;12.40;;
59756;SDS011;45631;51.962;5.974;2023-06-22T13:14:48;13.10;;;11.70;;
59756;SDS011;45631;51.962;5.974;2023-06-22T13:17:16;13.25;;;11.85;;
59756;SDS011;45631;51.962;5.974;2023-06-22T13:19:46;14.93;;;12.30;;
59756;SDS011;45631;51.962;5.974;2023-06-22T13:22:27;15.00;;;13.13;;
59756;SDS011;45631;51.962;5.974;2023-06-22T13:27:25;16.02;;;13.27;;
59756;SDS011;45631;51.962;5.974;2023-06-22T13:29:54;14.57;;;12.63;;
59756;SDS011;45631;51.962;5.974;2023-06-22T13:32:22;14.60;;;13.07;;
59756;SDS011;45631;51.962;5.974;2023-06-22T13:34:53;15.80;;;13.55;;
59756;SDS011;45631;51.962;5.974;2023-06-22T13:37:24;15.45;;;13.70;;
59756;SDS011;45631;51.962;5.974;2023-06-22T13:39:53;16.55;;;14.52;;
59756;SDS011;45631;51.962;5.974;2023-06-22T13:42:22;17.58;;;15.52;;
59756;SDS011;45631;51.962;5.974;2023-06-22T13:44:51;17.92;;;15.98;;
59756;SDS011;45631;51.962;5.974;2023-06-22T13:47:19;17.50;;;14.85;;
59756;SDS011;45631;51.962;5.974;2023-06-22T13:49:47;20.00;;;16.08;;
59756;SDS011;45631;51.962;5.974;2023-06-22T13:52:17;17.27;;;15.30;;
59756;SDS011;45631;51.962;5.974;2023-06-22T13:54:45;17.92;;;15.32;;
59756;SDS011;45631;51.962;5.974;2023-06-22T13:57:13;16.08;;;14.40;;
59756;SDS011;45631;51.962;5.974;2023-06-22T13:59:41;18.67;;;16.00;;
59756;SDS011;45631;51.962;5.974;2023-06-22T14:02:09;15.95;;;14.25;;
59756;SDS011;45631;51.962;5.974;2023-06-22T14:04:38;15.45;;;13.88;;
59756;SDS011;45631;51.962;5.974;2023-06-22T14:07:06;15.95;;;14.25;;
59756;SDS011;45631;51.962;5.974;2023-06-22T14:09:36;17.05;;;14.13;;
59756;SDS011;45631;51.962;5.974;2023-06-22T14:12:04;17.42;;;14.80;;
59756;SDS011;45631;51.962;5.974;2023-06-22T14:14:34;18.67;;;15.23;;
59756;SDS011;45631;51.962;5.974;2023-06-22T14:17:02;17.73;;;14.93;;
59756;SDS011;45631;51.962;5.974;2023-06-22T14:19:31;18.10;;;15.90;;
59756;SDS011;45631;51.962;5.974;2023-06-22T14:21:59;17.30;;;14.95;;
59756;SDS011;45631;51.962;5.974;2023-06-22T14:24:28;18.30;;;15.52;;
59756;SDS011;45631;51.962;5.974;2023-06-22T14:26:58;18.67;;;15.32;;
59756;SDS011;45631;51.962;5.974;2023-06-22T14:29:29;20.27;;;15.57;;
59756;SDS011;45631;51.962;5.974;2023-06-22T14:31:57;18.10;;;15.73;;
59756;SDS011;45631;51.962;5.974;2023-06-22T14:34:25;16.83;;;15.13;;
59756;SDS011;45631;51.962;5.974;2023-06-22T14:36:53;17.75;;;15.82;;
59756;SDS011;45631;51.962;5.974;2023-06-22T14:39:21;17.77;;;15.95;;
59756;SDS011;45631;51.962;5.974;2023-06-22T14:41:49;18.80;;;16.40;;
59756;SDS011;45631;51.962;5.974;2023-06-22T14:44:19;18.35;;;16.10;;
59756;SDS011;45631;51.962;5.974;2023-06-22T14:46:48;20.02;;;15.75;;
59756;SDS011;45631;51.962;5.974;2023-06-22T14:49:16;18.15;;;16.13;;
59756;SDS011;45631;51.962;5.974;2023-06-22T14:51:44;18.23;;;16.33;;
59756;SDS011;45631;51.962;5.974;2023-06-22T14:54:12;19.02;;;15.57;;
59756;SDS011;45631;51.962;5.974;2023-06-22T14:56:40;18.52;;;16.52;;